createdAt,value
2017-08-18T00:00:43.863Z,100584.58
2017-08-18T00:01:49.694Z,100589.59
2017-08-18T00:02:55.753Z,100585.98
2017-08-18T00:04:04.059Z,100585.95
2017-08-18T00:05:13.600Z,100582.45
2017-08-18T00:06:19.643Z,100587.80
2017-08-18T00:07:25.772Z,100583.96
2017-08-18T00:08:31.805Z,100585.67
2017-08-18T00:09:37.968Z,100583.03
2017-08-18T00:10:43.827Z,100575.37
2017-08-18T00:11:49.829Z,100576.98
2017-08-18T00:12:55.851Z,100578.38
2017-08-18T00:14:01.996Z,100574.33
2017-08-18T00:15:08.115Z,100575.71
2017-08-18T00:16:14.196Z,100581.36
2017-08-18T00:17:20.263Z,100581.06
2017-08-18T00:18:26.328Z,100574.52
2017-08-18T00:19:32.370Z,100573.69
2017-08-18T00:20:38.491Z,100570.73
2017-08-18T00:21:44.514Z,100578.58
2017-08-18T00:22:50.562Z,100581.43
2017-08-18T00:23:56.624Z,100581.86
2017-08-18T00:25:08.930Z,100585.74
2017-08-18T00:26:15.030Z,100583.00
2017-08-18T00:27:21.085Z,100587.90
2017-08-18T00:28:26.922Z,100584.62
2017-08-18T00:29:32.766Z,100582.45
2017-08-18T00:30:38.901Z,100585.34
2017-08-18T00:31:44.927Z,100586.57
2017-08-18T00:32:50.953Z,100582.66
2017-08-18T00:33:56.804Z,100579.50
2017-08-18T00:35:02.934Z,100583.02
2017-08-18T00:36:08.656Z,100576.41
2017-08-18T00:37:14.685Z,100576.86
2017-08-18T00:38:20.742Z,100574.77
2017-08-18T00:39:26.844Z,100571.52
2017-08-18T00:40:32.998Z,100571.44
2017-08-18T00:41:39.067Z,100579.19
2017-08-18T00:42:44.764Z,100576.11
2017-08-18T00:43:50.828Z,100579.00
2017-08-18T00:44:56.858Z,100576.84
2017-08-18T00:46:02.882Z,100576.47
2017-08-18T00:47:08.954Z,100573.81
2017-08-18T00:48:14.779Z,100571.88
2017-08-18T00:49:21.347Z,100568.84
2017-08-18T00:50:27.400Z,100570.62
2017-08-18T00:51:33.451Z,100576.67
2017-08-18T00:52:39.558Z,100577.22
2017-08-18T00:53:45.417Z,100576.66
2017-08-18T00:54:51.492Z,100579.45
2017-08-18T00:55:57.231Z,100575.15
2017-08-18T00:57:02.791Z,100578.23
2017-08-18T00:58:08.828Z,100576.42
2017-08-18T00:59:14.894Z,100579.87
2017-08-18T01:00:20.962Z,100576.29
2017-08-18T01:01:26.465Z,100576.11
2017-08-18T01:02:32.593Z,100585.14
2017-08-18T01:03:38.773Z,100580.22
2017-08-18T01:04:44.357Z,100577.62
2017-08-18T01:05:50.094Z,100582.27
2017-08-18T01:06:55.320Z,100578.41
2017-08-18T01:08:00.785Z,100572.08
2017-08-18T01:09:06.805Z,100568.84
2017-08-18T01:10:12.852Z,100571.08
2017-08-18T01:11:18.908Z,100572.63
2017-08-18T01:12:24.949Z,100567.39
2017-08-18T01:13:31.055Z,100558.87
2017-08-18T01:14:37.108Z,100558.33
2017-08-18T01:15:43.190Z,100555.48
2017-08-18T01:16:48.758Z,100555.59
2017-08-18T01:17:54.799Z,100564.42
2017-08-18T01:19:00.942Z,100559.05
2017-08-18T01:20:06.610Z,100568.48
2017-08-18T01:21:12.515Z,100573.77
2017-08-18T01:22:18.626Z,100578.91
2017-08-18T01:23:24.340Z,100573.13
2017-08-18T01:24:30.449Z,100573.13
2017-08-18T01:25:36.561Z,100574.50
2017-08-18T01:26:42.660Z,100562.73
2017-08-18T01:27:50.254Z,100554.75
2017-08-18T01:28:59.488Z,100559.59
2017-08-18T01:30:05.563Z,100554.80
2017-08-18T01:31:11.729Z,100558.16
2017-08-18T01:32:17.913Z,100553.84
2017-08-18T01:33:23.993Z,100552.98
2017-08-18T01:34:30.252Z,100556.83
2017-08-18T01:35:36.320Z,100564.38
2017-08-18T01:36:42.340Z,100563.28
2017-08-18T01:37:48.366Z,100556.97
2017-08-18T01:38:54.397Z,100553.73
2017-08-18T01:40:00.501Z,100543.50
2017-08-18T01:41:06.588Z,100545.58
2017-08-18T01:42:12.642Z,100539.88
2017-08-18T01:43:18.690Z,100548.13
2017-08-18T01:44:24.728Z,100546.89
2017-08-18T01:45:30.569Z,100546.92
2017-08-18T01:46:36.669Z,100544.73
2017-08-18T01:47:42.753Z,100545.02
2017-08-18T01:48:50.867Z,100550.56
2017-08-18T01:49:56.920Z,100554.98
2017-08-18T01:51:03.042Z,100548.04
2017-08-18T01:52:09.122Z,100553.41
2017-08-18T01:53:15.170Z,100551.67
2017-08-18T01:54:21.212Z,100553.76
2017-08-18T01:55:27.280Z,100553.06
2017-08-18T01:56:33.136Z,100548.89
2017-08-18T01:57:39.226Z,100551.28
2017-08-18T01:58:45.270Z,100551.34
2017-08-18T01:59:51.340Z,100554.94
2017-08-18T02:00:57.414Z,100549.24
2017-08-18T02:02:03.567Z,100551.70
2017-08-18T02:03:09.252Z,100549.69
2017-08-18T02:04:15.303Z,100544.50
2017-08-18T02:05:21.394Z,100541.70
2017-08-18T02:06:27.488Z,100546.58
2017-08-18T02:07:33.578Z,100543.52
2017-08-18T02:08:39.699Z,100546.72
2017-08-18T02:09:45.738Z,100539.33
2017-08-18T02:10:51.845Z,100540.95
2017-08-18T02:11:57.742Z,100538.25
2017-08-18T02:13:03.806Z,100530.29
2017-08-18T02:14:09.837Z,100534.95
2017-08-18T02:15:15.880Z,100534.45
2017-08-18T02:16:21.927Z,100533.88
2017-08-18T02:17:27.979Z,100536.16
2017-08-18T02:18:34.078Z,100543.91
2017-08-18T02:19:40.153Z,100543.77
2017-08-18T02:20:46.201Z,100543.80
2017-08-18T02:21:52.258Z,100544.89
2017-08-18T02:22:58.290Z,100546.80
2017-08-18T02:24:04.344Z,100543.64
2017-08-18T02:25:10.397Z,100545.92
2017-08-18T02:26:16.423Z,100543.39
2017-08-18T02:27:22.485Z,100550.80
2017-08-18T02:28:28.570Z,100549.51
2017-08-18T02:29:34.659Z,100547.20
2017-08-18T02:30:42.544Z,100552.92
2017-08-18T02:31:48.569Z,100553.56
2017-08-18T02:32:54.663Z,100548.87
2017-08-18T02:34:00.694Z,100551.64
2017-08-18T02:35:06.818Z,100547.88
2017-08-18T02:36:12.860Z,100548.10
2017-08-18T02:37:18.953Z,100545.05
2017-08-18T02:38:24.998Z,100546.42
2017-08-18T02:39:31.026Z,100538.39
2017-08-18T02:40:37.082Z,100537.00
2017-08-18T02:41:43.105Z,100538.83
2017-08-18T02:42:49.160Z,100534.29
2017-08-18T02:43:55.265Z,100540.73
2017-08-18T02:45:01.377Z,100532.33
2017-08-18T02:46:07.487Z,100534.77
2017-08-18T02:47:13.524Z,100535.89
2017-08-18T02:48:19.571Z,100534.60
2017-08-18T02:49:25.655Z,100539.13
2017-08-18T02:50:31.690Z,100534.95
2017-08-18T02:51:41.409Z,100536.70
2017-08-18T02:52:47.691Z,100532.81
2017-08-18T02:53:53.738Z,100534.34
2017-08-18T02:54:59.818Z,100533.16
2017-08-18T02:56:05.951Z,100537.88
2017-08-18T02:57:12.044Z,100534.44
2017-08-18T02:58:18.083Z,100537.65
2017-08-18T02:59:24.133Z,100541.59
2017-08-18T03:00:30.208Z,100539.13
2017-08-18T03:01:36.061Z,100532.64
2017-08-18T03:02:41.979Z,100537.38
2017-08-18T03:03:48.020Z,100542.74
2017-08-18T03:04:54.067Z,100544.33
2017-08-18T03:06:00.122Z,100540.78
2017-08-18T03:07:06.162Z,100533.81
2017-08-18T03:08:12.221Z,100539.61
2017-08-18T03:09:18.262Z,100538.00
2017-08-18T03:10:23.941Z,100540.96
2017-08-18T03:11:29.989Z,100535.22
2017-08-18T03:14:18.002Z,100538.80
2017-08-18T03:15:24.068Z,100538.72
2017-08-18T03:21:37.946Z,100542.96
2017-08-18T03:22:43.988Z,100543.86
2017-08-18T03:23:50.104Z,100537.58
2017-08-18T03:24:56.141Z,100541.89
2017-08-18T03:26:02.243Z,100542.58
2017-08-18T03:27:08.290Z,100538.91
2017-08-18T03:28:14.347Z,100540.88
2017-08-18T03:29:20.417Z,100544.28
2017-08-18T03:30:26.473Z,100541.20
2017-08-18T03:31:32.539Z,100547.29
2017-08-18T03:32:38.606Z,100546.01
2017-08-18T03:33:49.574Z,100547.50
2017-08-18T03:35:00.566Z,100546.48
2017-08-18T03:36:06.629Z,100546.73
2017-08-18T03:37:12.658Z,100550.10
2017-08-18T03:41:26.191Z,100543.98
2017-08-18T03:44:14.878Z,100553.25
2017-08-18T03:45:21.033Z,100557.66
2017-08-18T03:46:27.544Z,100555.22
2017-08-18T03:47:33.573Z,100555.28
2017-08-18T03:48:39.621Z,100556.83
2017-08-18T03:49:45.649Z,100557.56
2017-08-18T03:50:51.394Z,100555.24
2017-08-18T03:51:57.440Z,100552.68
2017-08-18T03:53:03.589Z,100548.52
2017-08-18T03:54:09.623Z,100547.75
2017-08-18T03:55:16.053Z,100551.52
2017-08-18T03:56:22.187Z,100549.77
2017-08-18T03:57:28.255Z,100551.69
2017-08-18T03:58:34.377Z,100546.89
2017-08-18T03:59:40.435Z,100550.88
2017-08-18T04:00:46.516Z,100554.98
2017-08-18T04:02:14.502Z,100549.85
2017-08-18T04:03:20.542Z,100548.02
2017-08-18T04:06:03.548Z,100552.75
2017-08-18T04:07:09.900Z,100551.30
2017-08-18T04:08:16.749Z,100549.45
2017-08-18T04:09:22.813Z,100546.34
2017-08-18T04:10:28.913Z,100546.48
2017-08-18T04:11:35.060Z,100549.34
2017-08-18T04:12:41.105Z,100543.47
2017-08-18T04:13:47.165Z,100538.81
2017-08-18T04:14:53.233Z,100536.33
2017-08-18T04:16:04.041Z,100541.50
2017-08-18T04:17:10.149Z,100533.55
2017-08-18T04:18:16.187Z,100535.14
2017-08-18T04:19:22.242Z,100531.71
2017-08-18T04:20:28.320Z,100535.52
2017-08-18T04:21:34.454Z,100532.23
2017-08-18T04:24:22.947Z,100522.46
2017-08-18T04:25:29.001Z,100526.70
2017-08-18T04:28:16.963Z,100521.74
2017-08-18T04:29:23.183Z,100525.86
2017-08-18T04:30:29.251Z,100525.51
2017-08-18T04:31:35.331Z,100523.62
2017-08-18T04:32:41.415Z,100518.33
2017-08-18T04:33:47.505Z,100516.44
2017-08-18T04:34:53.559Z,100509.75
2017-08-18T04:35:58.886Z,100512.37
2017-08-18T04:37:04.750Z,100509.36
2017-08-18T04:38:11.760Z,100508.37
2017-08-18T04:39:18.353Z,100500.96
2017-08-18T04:40:24.393Z,100506.33
2017-08-18T04:41:30.440Z,100506.16
2017-08-18T04:42:36.527Z,100501.45
2017-08-18T04:43:42.429Z,100505.98
2017-08-18T04:44:49.082Z,100505.68
2017-08-18T04:45:55.123Z,100509.37
2017-08-18T04:47:00.987Z,100510.26
2017-08-18T04:48:07.030Z,100514.36
2017-08-18T04:49:13.124Z,100514.88
2017-08-18T04:50:24.909Z,100515.69
2017-08-18T04:53:13.155Z,100510.43
2017-08-18T04:54:19.271Z,100519.50
2017-08-18T04:57:14.961Z,100520.20
2017-08-18T04:58:26.403Z,100521.03
2017-08-18T04:59:35.157Z,100521.91
2017-08-18T05:00:40.830Z,100526.45
2017-08-18T05:01:46.880Z,100525.88
2017-08-18T05:02:52.964Z,100524.73
2017-08-18T05:03:59.017Z,100527.43
2017-08-18T05:05:05.124Z,100526.73
2017-08-18T05:06:11.199Z,100525.13
2017-08-18T05:07:17.259Z,100527.70
2017-08-18T05:08:23.315Z,100529.94
2017-08-18T05:09:29.519Z,100527.79
2017-08-18T05:10:35.572Z,100530.49
2017-08-18T05:11:41.621Z,100535.85
2017-08-18T05:12:47.660Z,100537.51
2017-08-18T05:13:53.733Z,100533.69
2017-08-18T05:14:59.769Z,100541.72
2017-08-18T05:16:05.881Z,100540.77
2017-08-18T05:17:11.952Z,100540.98
2017-08-18T05:18:18.040Z,100539.61
2017-08-18T05:19:24.112Z,100540.70
2017-08-18T05:20:30.217Z,100540.34
2017-08-18T05:21:37.152Z,100530.12
2017-08-18T05:22:43.577Z,100531.92
2017-08-18T05:23:49.652Z,100535.16
2017-08-18T05:24:55.717Z,100529.91
2017-08-18T05:26:01.911Z,100535.91
2017-08-18T05:27:07.988Z,100534.91
2017-08-18T05:28:14.082Z,100531.48
2017-08-18T05:29:20.154Z,100525.19
2017-08-18T05:30:26.212Z,100521.59
2017-08-18T05:31:32.407Z,100525.96
2017-08-18T05:32:38.744Z,100519.18
2017-08-18T05:33:44.812Z,100521.03
2017-08-18T05:34:50.881Z,100519.52
2017-08-18T05:35:56.943Z,100519.65
2017-08-18T05:37:03.165Z,100521.38
2017-08-18T05:38:09.238Z,100524.30
2017-08-18T05:39:15.310Z,100521.27
2017-08-18T05:40:22.928Z,100515.72
2017-08-18T05:41:32.242Z,100522.19
2017-08-18T05:42:38.349Z,100517.34
2017-08-18T05:43:44.452Z,100514.40
2017-08-18T05:44:50.530Z,100511.92
2017-08-18T05:45:56.606Z,100520.43
2017-08-18T05:47:02.792Z,100513.86
2017-08-18T05:48:08.952Z,100510.98
2017-08-18T05:49:15.035Z,100508.63
2017-08-18T05:50:21.117Z,100510.50
2017-08-18T05:51:27.299Z,100508.35
2017-08-18T05:52:33.366Z,100511.78
2017-08-18T05:53:39.507Z,100504.28
2017-08-18T05:54:45.619Z,100506.46
2017-08-18T05:55:51.695Z,100507.37
2017-08-18T05:56:57.820Z,100504.53
2017-08-18T05:59:46.765Z,100502.00
2017-08-18T06:00:59.381Z,100500.09
2017-08-18T06:02:28.147Z,100500.18
2017-08-18T06:03:34.027Z,100501.25
2017-08-18T06:04:40.121Z,100490.25
2017-08-18T06:05:46.197Z,100486.39
2017-08-18T06:06:52.305Z,100481.45
2017-08-18T06:07:58.361Z,100482.68
2017-08-18T06:09:03.725Z,100484.72
2017-08-18T06:10:09.871Z,100484.72
2017-08-18T06:11:15.953Z,100491.54
2017-08-18T06:12:22.009Z,100487.70
2017-08-18T06:13:29.293Z,100490.65
2017-08-18T06:14:35.349Z,100494.22
2017-08-18T06:15:41.423Z,100491.05
2017-08-18T06:16:47.445Z,100493.61
2017-08-18T06:17:53.498Z,100492.64
2017-08-18T06:18:59.550Z,100500.43
2017-08-18T06:21:48.206Z,100497.33
2017-08-18T06:22:54.047Z,100495.53
2017-08-18T06:25:36.559Z,100498.00
2017-08-18T06:26:42.631Z,100492.28
2017-08-18T06:27:48.669Z,100495.63
2017-08-18T06:28:54.707Z,100492.09
2017-08-18T06:30:00.725Z,100493.88
2017-08-18T06:31:06.742Z,100495.34
2017-08-18T06:32:12.788Z,100487.67
2017-08-18T06:33:18.802Z,100483.80
2017-08-18T06:34:24.842Z,100474.97
2017-08-18T06:35:30.911Z,100474.12
2017-08-18T06:36:36.921Z,100471.64
2017-08-18T06:37:42.982Z,100483.11
2017-08-18T06:38:48.997Z,100486.52
2017-08-18T06:39:55.019Z,100475.85
2017-08-18T06:41:04.785Z,100476.35
2017-08-18T06:42:17.141Z,100477.67
2017-08-18T06:43:24.333Z,100474.78
2017-08-18T06:44:30.606Z,100475.84
2017-08-18T06:45:36.902Z,100477.55
2017-08-18T06:46:43.299Z,100474.30
2017-08-18T06:47:49.350Z,100472.27
2017-08-18T06:48:55.436Z,100470.72
2017-08-18T06:50:01.500Z,100480.87
2017-08-18T06:51:07.569Z,100470.92
2017-08-18T06:52:13.584Z,100476.97
2017-08-18T06:53:19.621Z,100471.76
2017-08-18T06:54:25.687Z,100474.81
2017-08-18T06:55:31.712Z,100477.44
2017-08-18T06:56:37.722Z,100479.80
2017-08-18T06:57:43.761Z,100483.92
2017-08-18T06:58:49.786Z,100480.45
2017-08-18T06:59:55.872Z,100485.64
2017-08-18T07:01:01.954Z,100484.44
2017-08-18T07:02:07.982Z,100477.50
2017-08-18T07:03:13.993Z,100479.36
2017-08-18T07:04:20.041Z,100473.14
2017-08-18T07:05:26.614Z,100472.14
2017-08-18T07:06:32.651Z,100465.80
2017-08-18T07:07:38.703Z,100465.80
2017-08-18T07:08:44.734Z,100459.48
2017-08-18T07:09:50.791Z,100459.53
2017-08-18T07:10:56.865Z,100466.03
2017-08-18T07:12:02.967Z,100469.69
2017-08-18T07:13:08.982Z,100466.39
2017-08-18T07:14:15.025Z,100467.50
2017-08-18T07:15:21.082Z,100456.06
2017-08-18T07:16:27.138Z,100460.55
2017-08-18T07:17:33.176Z,100459.23
2017-08-18T07:18:39.213Z,100452.27
2017-08-18T07:19:45.288Z,100458.24
2017-08-18T07:20:51.298Z,100455.81
2017-08-18T07:21:57.358Z,100454.73
2017-08-18T07:23:03.444Z,100456.64
2017-08-18T07:24:09.465Z,100459.84
2017-08-18T07:25:15.495Z,100458.88
2017-08-18T07:26:21.580Z,100453.38
2017-08-18T07:27:27.914Z,100455.27
2017-08-18T07:28:33.965Z,100452.15
2017-08-18T07:29:40.023Z,100450.09
2017-08-18T07:30:46.078Z,100449.73
2017-08-18T07:31:52.208Z,100445.83
2017-08-18T07:32:58.273Z,100448.77
2017-08-18T07:34:04.345Z,100449.72
2017-08-18T07:35:10.411Z,100447.28
2017-08-18T07:36:16.463Z,100450.89
2017-08-18T07:37:22.577Z,100439.45
2017-08-18T07:38:28.624Z,100440.23
2017-08-18T07:39:34.681Z,100444.83
2017-08-18T07:40:40.733Z,100439.59
2017-08-18T07:41:46.824Z,100438.67
2017-08-18T07:42:52.937Z,100444.58
2017-08-18T07:43:59.013Z,100445.92
2017-08-18T07:45:07.689Z,100439.56
2017-08-18T07:46:13.755Z,100438.92
2017-08-18T07:47:19.789Z,100441.11
2017-08-18T07:48:25.903Z,100440.40
2017-08-18T07:49:31.959Z,100436.67
2017-08-18T07:50:38.036Z,100442.09
2017-08-18T07:51:44.072Z,100439.48
2017-08-18T07:52:50.105Z,100434.89
2017-08-18T07:53:56.147Z,100434.91
2017-08-18T07:55:02.261Z,100431.45
2017-08-18T07:56:08.325Z,100434.16
2017-08-18T07:57:14.385Z,100436.58
2017-08-18T07:58:20.466Z,100430.91
2017-08-18T07:59:26.569Z,100437.67
2017-08-18T08:00:32.594Z,100435.70
2017-08-18T08:01:38.673Z,100438.48
2017-08-18T08:02:44.696Z,100434.81
2017-08-18T08:03:50.728Z,100432.52
2017-08-18T08:04:56.837Z,100431.62
2017-08-18T08:06:05.906Z,100431.81
2017-08-18T08:07:11.977Z,100432.70
2017-08-18T08:08:18.051Z,100433.56
2017-08-18T08:09:23.937Z,100435.26
2017-08-18T08:10:30.070Z,100428.88
2017-08-18T08:11:36.182Z,100428.44
2017-08-18T08:12:42.263Z,100426.41
2017-08-18T08:13:48.331Z,100427.68
2017-08-18T08:14:54.376Z,100430.71
2017-08-18T08:16:00.498Z,100431.97
2017-08-18T08:17:06.929Z,100434.58
2017-08-18T08:18:12.992Z,100438.20
2017-08-18T08:19:19.042Z,100444.41
2017-08-18T08:20:25.077Z,100436.92
2017-08-18T08:21:31.522Z,100441.64
2017-08-18T08:22:37.749Z,100435.65
2017-08-18T08:23:43.862Z,100442.85
2017-08-18T08:24:49.927Z,100438.59
2017-08-18T08:26:00.729Z,100439.00
2017-08-18T08:27:06.813Z,100440.02
2017-08-18T08:28:12.835Z,100441.67
2017-08-18T08:29:18.675Z,100441.08
2017-08-18T08:30:24.707Z,100442.00
2017-08-18T08:31:30.800Z,100441.20
2017-08-18T08:32:36.847Z,100440.42
2017-08-18T08:33:42.929Z,100446.41
2017-08-18T08:34:48.982Z,100439.56
2017-08-18T08:35:55.086Z,100444.21
2017-08-18T08:37:09.369Z,100443.30
2017-08-18T08:38:24.357Z,100454.80
2017-08-18T08:39:30.483Z,100448.77
2017-08-18T08:40:36.604Z,100450.86
2017-08-18T08:41:42.673Z,100449.23
2017-08-18T08:42:48.812Z,100444.75
2017-08-18T08:43:54.887Z,100446.50
2017-08-18T08:45:00.955Z,100444.76
2017-08-18T08:46:06.694Z,100446.34
2017-08-18T08:47:12.719Z,100436.97
2017-08-18T08:48:18.814Z,100439.97
2017-08-18T08:49:24.858Z,100440.51
2017-08-18T08:50:30.909Z,100438.43
2017-08-18T08:51:36.945Z,100432.69
2017-08-18T08:52:43.014Z,100432.61
2017-08-18T08:53:49.120Z,100435.61
2017-08-18T08:54:55.185Z,100433.34
2017-08-18T08:56:01.308Z,100435.67
2017-08-18T08:57:07.347Z,100430.23
2017-08-18T08:58:13.396Z,100436.22
2017-08-18T08:59:19.505Z,100429.11
2017-08-18T09:00:25.555Z,100435.77
2017-08-18T09:01:31.640Z,100433.33
2017-08-18T09:02:37.679Z,100425.76
2017-08-18T09:03:43.773Z,100433.91
2017-08-18T09:04:49.889Z,100425.50
2017-08-18T09:05:55.926Z,100425.00
2017-08-18T09:07:03.075Z,100422.05
2017-08-18T09:08:12.182Z,100421.97
2017-08-18T09:09:18.282Z,100419.13
2017-08-18T09:10:24.396Z,100417.27
2017-08-18T09:11:30.441Z,100414.23
2017-08-18T09:12:36.513Z,100422.98
2017-08-18T09:13:42.607Z,100413.14
2017-08-18T09:14:48.657Z,100413.59
2017-08-18T09:15:55.022Z,100413.52
2017-08-18T09:17:01.114Z,100420.03
2017-08-18T09:18:07.174Z,100417.76
2017-08-18T09:19:13.257Z,100416.67
2017-08-18T09:20:19.367Z,100419.64
2017-08-18T09:21:25.416Z,100419.30
2017-08-18T09:22:31.460Z,100418.68
2017-08-18T09:23:37.344Z,100416.59
2017-08-18T09:24:43.101Z,100414.33
2017-08-18T09:25:49.207Z,100412.10
2017-08-18T09:26:55.290Z,100418.83
2017-08-18T09:28:07.919Z,100408.86
2017-08-18T09:29:13.689Z,100408.55
2017-08-18T09:30:19.725Z,100411.13
2017-08-18T09:31:25.861Z,100405.20
2017-08-18T09:32:31.904Z,100401.48
2017-08-18T09:33:37.972Z,100397.32
2017-08-18T09:34:43.988Z,100391.58
2017-08-18T09:35:50.074Z,100381.64
2017-08-18T09:36:56.166Z,100385.59
2017-08-18T09:38:02.294Z,100382.69
2017-08-18T09:39:08.059Z,100385.55
2017-08-18T09:40:13.806Z,100380.34
2017-08-18T09:41:19.857Z,100375.02
2017-08-18T09:42:25.951Z,100374.43
2017-08-18T09:43:32.016Z,100372.55
2017-08-18T09:44:38.032Z,100368.48
2017-08-18T09:45:44.098Z,100367.38
2017-08-18T09:46:50.186Z,100367.71
2017-08-18T09:48:07.168Z,100369.14
2017-08-18T09:49:24.206Z,100367.36
2017-08-18T09:50:41.092Z,100355.52
2017-08-18T09:51:57.962Z,100356.23
2017-08-18T09:53:14.947Z,100358.44
2017-08-18T09:54:32.700Z,100356.38
2017-08-18T09:55:51.199Z,100354.10
2017-08-18T09:57:08.486Z,100351.68
2017-08-18T09:58:38.459Z,100350.64
2017-08-18T10:00:19.341Z,100345.78
2017-08-18T10:01:26.039Z,100353.44
2017-08-18T10:02:33.115Z,100346.80
2017-08-18T10:03:42.466Z,100350.17
2017-08-18T10:04:50.065Z,100345.61
2017-08-18T10:05:56.081Z,100348.05
2017-08-18T10:07:03.465Z,100340.05
2017-08-18T10:08:09.106Z,100343.41
2017-08-18T10:09:21.491Z,100344.33
2017-08-18T10:10:28.353Z,100346.09
2017-08-18T10:11:34.065Z,100344.51
2017-08-18T10:12:40.498Z,100349.70
2017-08-18T10:13:47.239Z,100348.51
2017-08-18T10:14:54.730Z,100340.23
2017-08-18T10:16:02.430Z,100339.64
2017-08-18T10:17:08.425Z,100346.19
2017-08-18T10:18:15.750Z,100335.27
2017-08-18T10:19:23.110Z,100329.34
2017-08-18T10:20:29.663Z,100337.16
2017-08-18T10:21:35.887Z,100328.17
2017-08-18T10:22:43.533Z,100332.07
2017-08-18T10:23:51.589Z,100326.94
2017-08-18T10:24:59.313Z,100324.55
2017-08-18T10:26:05.858Z,100317.66
2017-08-18T10:27:13.397Z,100317.66
2017-08-18T10:28:20.610Z,100309.56
2017-08-18T10:29:26.647Z,100308.78
2017-08-18T10:30:33.215Z,100311.75
2017-08-18T10:31:41.052Z,100303.67
2017-08-18T10:32:48.524Z,100296.52
2017-08-18T10:33:56.057Z,100293.31
2017-08-18T10:35:03.069Z,100289.20
2017-08-18T10:36:11.314Z,100291.47
2017-08-18T10:37:18.597Z,100292.08
2017-08-18T10:38:25.354Z,100283.56
2017-08-18T10:39:32.300Z,100285.45
2017-08-18T10:40:39.285Z,100287.89
2017-08-18T10:41:45.152Z,100282.42
2017-08-18T10:42:52.489Z,100282.96
2017-08-18T10:43:59.292Z,100281.27
2017-08-18T10:45:04.910Z,100273.00
2017-08-18T10:46:10.196Z,100277.05
2017-08-18T10:47:16.921Z,100277.16
2017-08-18T10:48:23.287Z,100280.56
2017-08-18T10:49:29.753Z,100279.00
2017-08-18T10:50:36.787Z,100277.46
2017-08-18T10:51:43.756Z,100279.38
2017-08-18T10:52:49.636Z,100285.34
2017-08-18T10:53:54.887Z,100284.09
2017-08-18T10:55:00.182Z,100286.88
2017-08-18T10:56:05.738Z,100291.83
2017-08-18T10:57:11.301Z,100288.94
2017-08-18T10:58:16.867Z,100296.05
2017-08-18T10:59:22.422Z,100294.98
2017-08-18T11:00:27.757Z,100293.49
2017-08-18T11:01:33.352Z,100300.41
2017-08-18T11:02:38.901Z,100295.00
2017-08-18T11:03:44.495Z,100291.42
2017-08-18T11:04:50.082Z,100290.61
2017-08-18T11:05:55.438Z,100287.47
2017-08-18T11:07:00.739Z,100285.58
2017-08-18T11:08:06.316Z,100289.61
2017-08-18T11:09:11.914Z,100291.40
2017-08-18T11:10:17.172Z,100294.34
2017-08-18T11:11:22.456Z,100288.23
2017-08-18T11:12:27.707Z,100286.67
2017-08-18T11:13:33.269Z,100290.29
2017-08-18T11:14:38.970Z,100279.58
2017-08-18T11:15:44.533Z,100288.67
2017-08-18T11:16:50.123Z,100287.05
2017-08-18T11:17:55.392Z,100284.84
2017-08-18T11:19:00.683Z,100283.70
2017-08-18T11:20:06.285Z,100289.91
2017-08-18T11:21:11.866Z,100289.97
2017-08-18T11:22:17.447Z,100279.53
2017-08-18T11:23:23.066Z,100284.92
2017-08-18T11:24:28.352Z,100280.80
2017-08-18T11:25:33.673Z,100286.45
2017-08-18T11:26:38.921Z,100281.17
2017-08-18T11:27:44.671Z,100275.44
2017-08-18T11:28:50.966Z,100280.36
2017-08-18T11:29:56.289Z,100275.78
2017-08-18T11:31:01.858Z,100275.50
2017-08-18T11:32:07.531Z,100287.33
2017-08-18T11:33:13.116Z,100276.61
2017-08-18T11:34:18.693Z,100278.03
2017-08-18T11:35:24.316Z,100279.56
2017-08-18T11:36:29.899Z,100273.41
2017-08-18T11:37:35.466Z,100277.75
2017-08-18T11:38:41.034Z,100284.77
2017-08-18T11:39:46.595Z,100275.98
2017-08-18T11:40:52.199Z,100264.44
2017-08-18T11:41:57.813Z,100260.59
2017-08-18T11:43:03.441Z,100265.22
2017-08-18T11:44:09.029Z,100257.97
2017-08-18T11:45:14.567Z,100249.75
2017-08-18T11:46:20.195Z,100256.08
2017-08-18T11:47:25.763Z,100254.74
2017-08-18T11:48:31.354Z,100256.36
2017-08-18T11:49:36.664Z,100255.59
2017-08-18T11:50:42.244Z,100254.55
2017-08-18T11:51:47.854Z,100257.94
2017-08-18T11:52:53.578Z,100251.70
2017-08-18T11:53:59.393Z,100256.14
2017-08-18T11:55:04.685Z,100253.75
2017-08-18T11:56:10.228Z,100259.18
2017-08-18T11:57:15.824Z,100258.17
2017-08-18T11:58:21.381Z,100247.54
2017-08-18T11:59:26.938Z,100243.14
2017-08-18T12:00:32.100Z,100245.33
2017-08-18T12:01:37.395Z,100243.56
2017-08-18T12:02:42.734Z,100241.95
2017-08-18T12:03:48.321Z,100245.86
2017-08-18T12:04:53.588Z,100244.84
2017-08-18T12:05:58.905Z,100236.68
2017-08-18T12:07:04.163Z,100242.33
2017-08-18T12:08:09.503Z,100240.55
2017-08-18T12:09:14.778Z,100243.70
2017-08-18T12:10:20.318Z,100237.60
2017-08-18T12:11:25.617Z,100237.12
2017-08-18T12:12:31.166Z,100241.50
2017-08-18T12:13:36.770Z,100233.94
2017-08-18T12:14:42.033Z,100242.94
2017-08-18T12:15:47.292Z,100235.27
2017-08-18T12:16:52.848Z,100234.44
2017-08-18T12:17:58.096Z,100223.26
2017-08-18T12:19:03.396Z,100232.77
2017-08-18T12:20:08.712Z,100224.11
2017-08-18T12:21:13.981Z,100230.64
2017-08-18T12:22:19.280Z,100231.91
2017-08-18T12:23:24.584Z,100226.70
2017-08-18T12:24:29.899Z,100227.55
2017-08-18T12:25:35.454Z,100228.18
2017-08-18T12:26:40.718Z,100227.63
2017-08-18T12:27:46.054Z,100223.20
2017-08-18T12:28:51.341Z,100225.63
2017-08-18T12:29:56.689Z,100221.48
2017-08-18T12:31:02.937Z,100216.29
2017-08-18T12:32:08.806Z,100218.74
2017-08-18T12:33:14.114Z,100215.62
2017-08-18T12:34:21.070Z,100213.70
2017-08-18T12:35:29.630Z,100211.88
2017-08-18T12:36:37.439Z,100214.19
2017-08-18T12:37:44.877Z,100206.25
2017-08-18T12:38:53.200Z,100206.94
2017-08-18T12:40:01.630Z,100207.98
2017-08-18T12:41:10.888Z,100200.25
2017-08-18T12:42:18.060Z,100202.87
2017-08-18T12:43:24.292Z,100191.08
2017-08-18T12:44:29.957Z,100189.54
2017-08-18T12:45:37.097Z,100188.09
2017-08-18T12:46:43.402Z,100182.15
2017-08-18T12:47:48.666Z,100195.54
2017-08-18T12:48:55.778Z,100195.86
2017-08-18T12:50:03.387Z,100183.17
2017-08-18T12:51:11.387Z,100180.28
2017-08-18T12:52:20.334Z,100183.47
2017-08-18T12:53:28.127Z,100183.98
2017-08-18T12:54:36.311Z,100184.65
2017-08-18T12:55:47.834Z,100187.98
2017-08-18T12:56:55.932Z,100183.78
2017-08-18T12:58:05.388Z,100192.50
2017-08-18T12:59:12.157Z,100185.33
2017-08-18T13:00:21.949Z,100180.58
2017-08-18T13:01:29.861Z,100177.03
2017-08-18T13:02:37.205Z,100178.33
2017-08-18T13:03:44.290Z,100175.48
2017-08-18T13:04:53.091Z,100173.72